Time;durP1;ratioP1;P1;durP2;ratioP2;P2;SDS_P1;SDS_P2;PMS_P1;PMS_P2;Temp;Humidity;BMP_temperature;BMP_pressure;BME280_temperature;BME280_humidity;BME280_pressure;Samples;Min_cycle;Max_cycle;Signal;HPM_P1;HPM_P2
2022/10/09 00:01:14;;;;;;;1.20;1.15;;;;;;;8.57;66.32;93816.78;5092760;28;20027;-36
2022/10/09 00:03:41;;;;;;;4.40;4.07;;;;;;;8.47;66.09;93813.66;5089498;28;20173;-36
2022/10/09 00:06:09;;;;;;;0.95;0.70;;;;;;;8.13;67.36;93807.22;5086128;28;20032;-36
2022/10/09 00:08:35;;;;;;;1.27;1.25;;;;;;;8.02;68.71;93810.88;5079199;28;20052;-36
2022/10/09 00:11:08;;;;;;;1.10;1.00;;;;;;;7.82;68.12;93792.19;5093102;28;20020;-36
2022/10/09 00:13:34;;;;;;;1.25;0.63;;;;;;;7.72;69.39;93807.59;5087567;28;20588;-36
2022/10/09 00:16:06;;;;;;;0.77;0.77;;;;;;;7.74;69.04;93804.31;5092655;28;20024;-36
2022/10/09 00:18:32;;;;;;;3.55;2.65;;;;;;;7.73;69.16;93791.84;5088774;28;20498;-37
2022/10/09 00:20:58;;;;;;;1.33;0.55;;;;;;;8.08;68.05;93806.03;5093115;28;20047;-36
2022/10/09 00:23:24;;;;;;;0.70;0.70;;;;;;;8.13;67.85;93793.47;5092172;28;20066;-37
2022/10/09 00:25:54;;;;;;;0.80;0.80;;;;;;;7.99;68.24;93797.44;5088698;28;20034;-36
2022/10/09 00:28:21;;;;;;;0.30;0.30;;;;;;;8.16;67.58;93795.91;5091112;28;20028;-36
2022/10/09 00:30:46;;;;;;;2.47;1.35;;;;;;;8.27;67.28;93801.25;5091211;28;20131;-36
2022/10/09 00:33:12;;;;;;;2.08;1.50;;;;;;;8.40;66.46;93792.31;5091208;28;20711;-36
2022/10/09 00:35:38;;;;;;;1.85;1.75;;;;;;;8.16;67.83;93789.69;5084259;28;20111;-36
2022/10/09 00:38:04;;;;;;;1.15;1.15;;;;;;;8.04;68.18;93794.59;5092339;28;20027;-36
2022/10/09 00:40:30;;;;;;;1.63;1.52;;;;;;;8.04;67.97;93785.59;5091533;28;20042;-36
2022/10/09 00:42:56;;;;;;;1.02;1.02;;;;;;;8.06;67.82;93781.06;5092495;28;20054;-36
2022/10/09 00:45:22;;;;;;;1.63;1.55;;;;;;;7.88;68.13;93784.63;5092258;28;20035;-36
2022/10/09 00:47:59;;;;;;;0.38;0.38;;;;;;;7.76;67.78;93777.03;5090347;28;20036;-36
2022/10/09 00:50:48;;;;;;;0.40;0.40;;;;;;;8.04;67.00;93780.09;5075834;28;20027;-36
2022/10/09 00:53:16;;;;;;;0.90;0.90;;;;;;;8.04;66.43;93777.34;5081436;28;20028;-37
2022/10/09 00:55:42;;;;;;;1.05;1.05;;;;;;;7.80;66.31;93764.47;5073240;28;20081;-36
2022/10/09 00:58:08;;;;;;;2.22;2.08;;;;;;;7.65;66.80;93770.44;5092362;28;20024;-36
2022/10/09 01:00:34;;;;;;;1.08;1.05;;;;;;;7.80;66.69;93775.47;5091809;28;20028;-36
2022/10/09 01:02:59;;;;;;;0.80;0.80;;;;;;;7.70;67.18;93771.63;5092038;28;20031;-35
2022/10/09 01:05:51;;;;;;;3.53;2.22;;;;;;;7.75;66.64;93767.31;5091725;28;20032;-35
2022/10/09 01:08:24;;;;;;;2.22;2.03;;;;;;;7.95;65.79;93764.03;5090060;28;20136;-36
2022/10/09 01:11:00;;;;;;;1.52;1.42;;;;;;;7.89;66.50;93777.84;5073470;28;20028;-36
2022/10/09 01:13:26;;;;;;;3.17;2.90;;;;;;;7.69;67.16;93775.63;5076763;28;20085;-36
2022/10/09 01:15:54;;;;;;;4.18;2.72;;;;;;;7.62;67.38;93768.00;5086274;28;20085;-35
2022/10/09 01:18:44;;;;;;;0.40;0.40;;;;;;;7.62;67.28;93765.28;5091134;28;20032;-35
2022/10/09 01:21:19;;;;;;;0.90;0.90;;;;;;;7.46;67.26;93766.97;5084925;28;20047;-35
2022/10/09 01:24:00;;;;;;;3.00;2.50;;;;;;;7.43;67.80;93768.00;5071453;28;20024;-35
2022/10/09 01:26:44;;;;;;;5.57;1.33;;;;;;;7.42;67.57;93769.28;5072738;28;20081;-35
2022/10/09 01:29:10;;;;;;;0.90;0.90;;;;;;;7.62;66.45;93770.75;5084652;28;20040;-35
2022/10/09 01:31:41;;;;;;;1.17;1.15;;;;;;;7.59;66.68;93774.53;5091205;28;20024;-35
2022/10/09 01:34:09;;;;;;;0.38;0.38;;;;;;;7.51;66.91;93777.13;5075486;28;20058;-35
2022/10/09 01:36:36;;;;;;;1.83;1.73;;;;;;;7.34;67.21;93778.66;5073362;28;20039;-35
2022/10/09 01:39:02;;;;;;;0.73;0.55;;;;;;;7.27;67.66;93779.97;5068930;28;20048;-35
2022/10/09 01:41:28;;;;;;;1.23;1.23;;;;;;;7.09;68.12;93771.72;5091615;28;20104;-35
2022/10/09 01:43:54;;;;;;;1.05;1.05;;;;;;;7.22;68.43;93777.28;5091194;28;20024;-35
2022/10/09 01:46:23;;;;;;;0.30;0.30;;;;;;;7.52;67.09;93772.38;5090984;28;20024;-34
2022/10/09 01:49:31;;;;;;;0.30;0.30;;;;;;;7.35;66.43;93772.63;5090761;28;20032;-34
2022/10/09 01:52:21;;;;;;;0.98;0.75;;;;;;;6.99;68.01;93770.59;5086483;28;20044;-35
2022/10/09 01:55:02;;;;;;;1.27;0.88;;;;;;;6.97;68.34;93773.13;5072355;28;20030;-34
2022/10/09 01:57:52;;;;;;;0.95;0.95;;;;;;;7.22;67.25;93771.81;5087852;28;20028;-35
2022/10/09 02:00:18;;;;;;;0.32;0.32;;;;;;;6.97;67.54;93767.63;5035198;28;20039;-35
2022/10/09 02:02:44;;;;;;;1.63;1.52;;;;;;;7.03;67.80;93760.81;5072006;28;20084;-35
2022/10/09 02:05:12;;;;;;;1.20;1.20;;;;;;;7.33;66.78;93771.66;5090351;28;20032;-35
2022/10/09 02:07:38;;;;;;;1.70;1.10;;;;;;;7.25;66.89;93774.28;5086772;28;20076;-35
2022/10/09 02:10:04;;;;;;;1.73;1.52;;;;;;;7.09;67.10;93763.47;5090642;28;20058;-34
2022/10/09 02:12:33;;;;;;;1.77;1.05;;;;;;;7.09;67.27;93775.22;5078523;28;20067;-34
2022/10/09 02:14:58;;;;;;;9.80;2.75;;;;;;;7.20;66.87;93783.31;5089847;28;20477;-35
2022/10/09 02:17:27;;;;;;;1.15;1.15;;;;;;;7.01;67.18;93777.06;5090509;28;20027;-34
2022/10/09 02:20:24;;;;;;;0.50;0.50;;;;;;;6.99;66.96;93785.09;5075597;28;20073;-35
2022/10/09 02:22:50;;;;;;;2.63;1.95;;;;;;;6.55;67.76;93769.84;5069221;28;20472;-34
2022/10/09 02:25:16;;;;;;;1.45;1.23;;;;;;;6.54;68.46;93790.28;5089997;28;20028;-34
2022/10/09 02:27:41;;;;;;;1.40;1.40;;;;;;;6.50;68.78;93792.59;5072257;28;20020;-34
2022/10/09 02:30:08;;;;;;;0.45;0.45;;;;;;;6.69;68.32;93800.88;5082386;28;20056;-34
2022/10/09 02:32:33;;;;;;;1.58;1.48;;;;;;;6.77;67.74;93796.31;5090037;28;20031;-34
2022/10/09 02:34:59;;;;;;;0.60;0.60;;;;;;;6.39;68.38;93800.19;5085075;28;20028;-34
2022/10/09 02:37:24;;;;;;;0.40;0.40;;;;;;;6.51;68.65;93785.09;5090216;28;20035;-35
2022/10/09 02:39:50;;;;;;;1.85;1.38;;;;;;;6.24;68.86;93797.09;5085487;28;20547;-34
2022/10/09 02:42:15;;;;;;;0.22;0.22;;;;;;;6.10;69.60;93796.97;5089492;28;20384;-35
2022/10/09 02:44:41;;;;;;;1.80;1.65;;;;;;;6.20;69.70;93804.84;5090103;28;20534;-35
2022/10/09 02:47:07;;;;;;;1.15;1.15;;;;;;;6.44;69.28;93799.38;5089683;28;20085;-34
2022/10/09 02:49:32;;;;;;;1.23;1.23;;;;;;;6.58;67.84;93804.47;5089827;28;20036;-35
2022/10/09 02:51:58;;;;;;;0.98;0.98;;;;;;;6.73;67.57;93804.84;5088087;28;20624;-35
2022/10/09 02:54:23;;;;;;;0.82;0.82;;;;;;;6.63;67.77;93800.19;5090024;28;20035;-34
2022/10/09 02:56:49;;;;;;;1.65;1.55;;;;;;;6.68;67.31;93802.88;5088441;28;20032;-34
2022/10/09 02:59:14;;;;;;;0.75;0.75;;;;;;;6.39;68.02;93800.19;5089201;28;20020;-35
2022/10/09 03:01:40;;;;;;;1.90;1.77;;;;;;;6.32;68.71;93801.50;5090372;28;20403;-35
2022/10/09 03:04:05;;;;;;;0.40;0.40;;;;;;;6.41;68.34;93805.91;5089625;28;20472;-35
2022/10/09 03:06:31;;;;;;;1.00;1.00;;;;;;;6.29;68.53;93797.03;5089500;28;20050;-35
2022/10/09 03:08:56;;;;;;;1.10;1.10;;;;;;;6.36;68.22;93801.97;5086147;28;20047;-35
2022/10/09 03:11:23;;;;;;;0.85;0.85;;;;;;;6.44;67.94;93807.63;5087789;28;20040;-35
2022/10/09 03:13:49;;;;;;;1.33;0.60;;;;;;;6.32;68.18;93800.75;5086164;28;20020;-35
2022/10/09 03:16:20;;;;;;;1.13;1.02;;;;;;;6.39;68.52;93809.16;5089865;28;20038;-35
2022/10/09 03:18:47;;;;;;;1.85;1.75;;;;;;;6.50;67.66;93808.28;5089472;28;20020;-35
2022/10/09 03:21:16;;;;;;;1.13;1.13;;;;;;;6.43;67.63;93808.88;5071725;28;20040;-35
2022/10/09 03:23:41;;;;;;;2.92;2.67;;;;;;;6.18;68.44;93810.84;5089165;28;20032;-35
2022/10/09 03:26:09;;;;;;;1.13;1.13;;;;;;;6.16;68.35;93815.34;5066494;28;20035;-35
2022/10/09 03:28:39;;;;;;;0.60;0.60;;;;;;;6.35;67.89;93818.91;5087925;28;20032;-35
2022/10/09 03:31:05;;;;;;;1.17;0.85;;;;;;;6.50;66.81;93822.75;5071967;28;20110;-35
2022/10/09 03:33:32;;;;;;;1.75;0.95;;;;;;;6.09;67.23;93820.13;5089314;28;20119;-35
2022/10/09 03:35:57;;;;;;;1.20;0.82;;;;;;;5.81;68.77;93816.06;5088597;28;20510;-35
2022/10/09 03:38:22;;;;;;;0.85;0.85;;;;;;;5.65;69.45;93825.88;5089912;28;20020;-35
2022/10/09 03:40:48;;;;;;;2.40;2.20;;;;;;;5.66;69.92;93824.66;5086520;28;20730;-35
2022/10/09 03:43:13;;;;;;;1.30;1.30;;;;;;;5.70;69.54;93825.13;5088495;28;20725;-35
2022/10/09 03:45:40;;;;;;;2.38;2.22;;;;;;;5.92;68.80;93827.75;5084453;28;20039;-35
2022/10/09 03:48:06;;;;;;;3.55;3.33;;;;;;;5.92;68.33;93827.75;5072649;28;20539;-35
2022/10/09 03:50:32;;;;;;;6.53;4.43;;;;;;;6.06;68.15;93831.38;5089128;28;20059;-35
2022/10/09 03:52:57;;;;;;;1.20;1.20;;;;;;;6.15;67.51;93833.78;5089445;28;20048;-35
2022/10/09 03:55:23;;;;;;;2.35;2.15;;;;;;;6.07;68.06;93824.63;5089200;28;20028;-34
2022/10/09 03:57:48;;;;;;;0.88;0.88;;;;;;;6.01;67.98;93823.94;5078699;28;20028;-35
2022/10/09 04:00:14;;;;;;;1.33;1.23;;;;;;;5.76;68.47;93812.13;5088736;28;20117;-35
2022/10/09 04:02:39;;;;;;;1.90;1.33;;;;;;;5.64;68.75;93835.38;5089025;28;20503;-34
2022/10/09 04:05:05;;;;;;;0.82;0.82;;;;;;;5.78;68.06;93836.28;5089368;28;20023;-34
2022/10/09 04:07:31;;;;;;;1.70;1.60;;;;;;;5.86;67.61;93834.50;5089236;28;20023;-34
2022/10/09 04:09:56;;;;;;;1.00;1.00;;;;;;;5.53;69.07;93838.16;5089513;28;20492;-35
2022/10/09 04:12:22;;;;;;;2.10;2.00;;;;;;;5.56;69.24;93841.91;5086267;28;20479;-34
2022/10/09 04:14:47;;;;;;;4.60;3.58;;;;;;;5.73;68.20;93837.06;5085675;28;20139;-34
2022/10/09 04:17:13;;;;;;;1.25;1.20;;;;;;;5.85;68.02;93841.97;5092782;28;20016;-34
2022/10/09 04:19:38;;;;;;;5.13;4.82;;;;;;;5.82;68.19;93848.47;5091851;28;20020;-34
2022/10/09 04:22:04;;;;;;;4.47;4.18;;;;;;;5.74;68.71;93844.03;5091854;28;20584;-34
2022/10/09 04:24:29;;;;;;;4.38;4.13;;;;;;;5.62;69.27;93843.34;5092876;28;20372;-35
2022/10/09 04:26:55;;;;;;;7.43;6.68;;;;;;;5.43;70.05;93831.50;5091078;28;20389;-36
2022/10/09 04:29:21;;;;;;;6.65;3.03;;;;;;;5.48;70.39;93843.69;5089305;28;20032;-36
2022/10/09 04:31:46;;;;;;;2.65;2.45;;;;;;;5.62;69.88;93845.34;5092507;28;20035;-36
2022/10/09 04:34:12;;;;;;;2.15;2.05;;;;;;;5.76;69.63;93839.50;5092568;28;20411;-35
2022/10/09 04:36:37;;;;;;;3.60;3.30;;;;;;;5.66;69.31;93821.16;5092598;28;20036;-35
2022/10/09 04:39:03;;;;;;;4.20;3.85;;;;;;;5.59;70.05;93849.09;5092106;28;20016;-34
2022/10/09 04:41:28;;;;;;;3.75;3.45;;;;;;;5.74;70.15;93838.56;5091210;28;20042;-34
2022/10/09 04:43:55;;;;;;;8.63;3.30;;;;;;;5.51;70.56;93837.94;5091294;28;20032;-34
2022/10/09 04:46:21;;;;;;;7.05;3.95;;;;;;;5.59;70.80;93838.16;5087022;28;20035;-34
2022/10/09 04:48:47;;;;;;;3.22;3.03;;;;;;;5.87;69.97;93842.22;5092561;28;20099;-34
2022/10/09 04:51:14;;;;;;;2.45;2.25;;;;;;;6.03;69.15;93840.63;5089295;28;20549;-34
2022/10/09 04:53:40;;;;;;;5.15;3.85;;;;;;;5.85;69.16;93841.97;5091851;28;20634;-34
2022/10/09 04:56:08;;;;;;;3.85;3.55;;;;;;;6.05;69.35;93840.84;5088188;28;20111;-34
2022/10/09 04:58:38;;;;;;;3.90;3.10;;;;;;;5.94;69.22;93849.16;5089176;28;20032;-34
2022/10/09 05:01:06;;;;;;;6.38;1.92;;;;;;;6.04;68.76;93842.84;5091781;28;20028;-34
2022/10/09 05:03:32;;;;;;;2.45;2.05;;;;;;;6.04;69.10;93850.34;5091343;28;20032;-34
2022/10/09 05:06:01;;;;;;;6.35;4.88;;;;;;;5.75;70.83;93845.50;5092303;28;20020;-34
2022/10/09 05:08:27;;;;;;;1.85;1.75;;;;;;;5.87;70.54;93844.94;5090655;28;20035;-34
2022/10/09 05:10:52;;;;;;;5.22;4.72;;;;;;;5.85;70.74;93850.19;5092035;28;20024;-34
2022/10/09 05:13:18;;;;;;;2.17;2.08;;;;;;;5.64;72.32;93845.56;5089813;28;20049;-34
2022/10/09 05:15:43;;;;;;;2.78;1.88;;;;;;;5.90;72.30;93857.66;5091824;28;20020;-34
2022/10/09 05:18:08;;;;;;;3.58;3.33;;;;;;;6.10;71.77;93849.03;5089377;28;20113;-34
2022/10/09 05:20:39;;;;;;;4.30;3.35;;;;;;;6.10;69.88;93845.56;5090762;28;20032;-35
2022/10/09 05:23:05;;;;;;;3.80;2.45;;;;;;;6.17;70.05;93852.47;5091685;28;20024;-36
2022/10/09 05:25:30;;;;;;;3.90;3.60;;;;;;;6.33;69.71;93854.31;5090273;28;20478;-35
2022/10/09 05:27:56;;;;;;;3.10;2.88;;;;;;;6.23;69.75;93851.19;5090696;28;20024;-36
2022/10/09 05:30:21;;;;;;;4.13;3.83;;;;;;;6.15;70.26;93850.22;5088894;28;20043;-35
2022/10/09 05:32:47;;;;;;;2.80;2.58;;;;;;;6.23;70.41;93855.91;5086218;28;20098;-35
2022/10/09 05:35:13;;;;;;;4.93;2.83;;;;;;;6.25;70.11;93856.16;5091605;28;20089;-36
2022/10/09 05:37:38;;;;;;;2.53;2.40;;;;;;;6.40;69.66;93864.75;5091135;28;20046;-36
2022/10/09 05:40:05;;;;;;;3.10;2.85;;;;;;;6.60;69.34;93862.34;5090935;28;20020;-36
2022/10/09 05:42:30;;;;;;;1.77;1.67;;;;;;;6.62;69.71;93867.28;5084723;28;20039;-36
2022/10/09 05:44:56;;;;;;;4.22;3.17;;;;;;;6.65;69.71;93860.78;5090483;28;20028;-36
2022/10/09 05:47:22;;;;;;;4.63;4.22;;;;;;;6.62;70.09;93870.78;5087927;28;20070;-36
2022/10/09 05:49:48;;;;;;;3.60;3.33;;;;;;;6.65;69.68;93847.06;5090878;28;20069;-35
2022/10/09 05:52:15;;;;;;;7.22;5.63;;;;;;;6.80;69.75;93861.13;5091379;28;20020;-35
2022/10/09 05:54:41;;;;;;;6.95;6.32;;;;;;;6.96;70.18;93864.97;5090083;28;20028;-36
2022/10/09 05:57:07;;;;;;;7.72;4.05;;;;;;;7.12;70.68;93864.03;5089940;28;20472;-36
2022/10/09 05:59:32;;;;;;;3.55;3.35;;;;;;;7.53;69.52;93870.03;5090876;28;20032;-36
2022/10/09 06:01:58;;;;;;;2.28;2.15;;;;;;;7.96;68.46;93867.22;5088815;28;20028;-36
2022/10/09 06:04:23;;;;;;;5.50;4.43;;;;;;;8.51;66.70;93869.13;5086946;28;20056;-35
2022/10/09 06:06:50;;;;;;;4.97;4.28;;;;;;;9.11;65.20;93872.88;5089927;28;20027;-36
2022/10/09 06:09:21;;;;;;;16.38;9.95;;;;;;;9.98;63.02;93872.88;5086386;28;20110;-36
2022/10/09 06:11:47;;;;;;;27.17;11.65;;;;;;;10.78;60.59;93870.03;5083490;28;20059;-36
2022/10/09 06:14:13;;;;;;;13.75;8.55;;;;;;;11.74;58.13;93870.47;5090824;28;20101;-36
2022/10/09 06:16:41;;;;;;;8.02;4.60;;;;;;;12.72;55.64;93876.31;5090618;28;20039;-35
2022/10/09 06:19:07;;;;;;;7.43;3.58;;;;;;;13.71;53.34;93870.72;5088249;28;20039;-36
2022/10/09 06:21:33;;;;;;;2.80;2.50;;;;;;;14.64;51.80;93865.72;5071406;28;20043;-36
2022/10/09 06:24:01;;;;;;;1.95;1.85;;;;;;;15.48;49.83;93870.06;5087793;28;20412;-36
2022/10/09 06:26:30;;;;;;;3.58;3.20;;;;;;;16.25;48.05;93879.06;5089021;28;20057;-36
2022/10/09 06:28:57;;;;;;;2.70;2.50;;;;;;;16.93;46.58;93875.41;5082406;28;20016;-36
2022/10/09 06:31:25;;;;;;;2.88;2.67;;;;;;;17.43;45.70;93877.19;5087911;28;20036;-36
2022/10/09 06:33:52;;;;;;;6.30;2.97;;;;;;;17.82;44.80;93878.03;5088027;28;20081;-36
2022/10/09 06:36:22;;;;;;;3.03;2.30;;;;;;;18.05;44.62;93881.16;5088157;28;20027;-36
2022/10/09 06:38:48;;;;;;;2.33;1.75;;;;;;;18.63;43.22;93881.13;5088960;28;20024;-37
2022/10/09 06:41:21;;;;;;;1.52;1.42;;;;;;;19.14;42.51;93877.75;5087715;28;20031;-36
2022/10/09 06:43:55;;;;;;;1.98;1.67;;;;;;;19.48;41.97;93880.13;5085138;28;20089;-36
2022/10/09 06:46:25;;;;;;;3.33;2.22;;;;;;;19.78;41.96;93887.03;5088058;28;20019;-36
2022/10/09 06:48:51;;;;;;;4.13;1.98;;;;;;;20.08;41.25;93893.91;5089314;28;20020;-36
2022/10/09 06:51:18;;;;;;;1.38;1.27;;;;;;;20.23;41.05;93893.53;5087020;28;20056;-36
2022/10/09 06:53:46;;;;;;;1.40;1.17;;;;;;;20.01;42.16;93889.25;5086947;28;20457;-36
2022/10/09 06:56:12;;;;;;;0.90;0.90;;;;;;;19.80;43.03;93894.84;5088882;28;20080;-36
2022/10/09 06:58:39;;;;;;;3.40;1.05;;;;;;;20.02;43.45;93894.25;5087989;28;20024;-36
2022/10/09 07:01:07;;;;;;;0.68;0.68;;;;;;;20.07;42.88;93889.66;5088245;28;20020;-36
2022/10/09 07:03:33;;;;;;;1.00;1.00;;;;;;;20.15;43.42;93895.78;5083924;28;20527;-36
2022/10/09 07:06:13;;;;;;;0.63;0.63;;;;;;;19.89;43.32;93891.25;5086766;28;20050;-36
2022/10/09 07:08:41;;;;;;;1.50;1.40;;;;;;;19.87;43.79;93891.09;5087980;28;20059;-36
2022/10/09 07:11:14;;;;;;;0.65;0.65;;;;;;;19.49;44.58;93892.78;5088175;28;20051;-36
2022/10/09 07:13:41;;;;;;;0.40;0.40;;;;;;;19.66;44.83;93900.94;5086951;28;20447;-35
2022/10/09 07:16:07;;;;;;;1.58;1.48;;;;;;;19.98;44.80;93896.78;5085876;28;20040;-35
2022/10/09 07:18:33;;;;;;;0.88;0.60;;;;;;;19.97;44.65;93900.19;5086082;28;20677;-35
2022/10/09 07:21:01;;;;;;;0.35;0.35;;;;;;;19.85;44.49;93896.59;5082771;28;20039;-35
2022/10/09 07:23:28;;;;;;;1.38;1.27;;;;;;;19.90;45.04;93901.13;5089504;28;20024;-35
2022/10/09 07:25:53;;;;;;;1.05;0.90;;;;;;;20.00;44.56;93901.78;5088744;28;20543;-35
2022/10/09 07:28:18;;;;;;;3.88;1.52;;;;;;;20.04;44.81;93900.00;5089349;28;20020;-35
2022/10/09 07:30:44;;;;;;;3.92;1.48;;;;;;;20.30;43.50;93896.13;5086720;28;20061;-35
2022/10/09 07:33:09;;;;;;;0.47;0.47;;;;;;;20.28;43.86;93900.88;5085872;28;20039;-35
2022/10/09 07:35:35;;;;;;;1.65;1.30;;;;;;;19.99;44.74;93889.84;5083861;28;20453;-35
2022/10/09 07:38:00;;;;;;;0.63;0.63;;;;;;;20.44;44.83;93893.53;5088297;28;20039;-35
2022/10/09 07:40:26;;;;;;;0.30;0.30;;;;;;;20.61;43.08;93898.84;5087066;28;20115;-35
2022/10/09 07:42:51;;;;;;;0.40;0.40;;;;;;;20.80;43.66;93895.84;5089121;28;20024;-35
2022/10/09 07:45:16;;;;;;;0.20;0.20;;;;;;;20.34;44.90;93896.41;5088973;28;20032;-35
2022/10/09 07:47:42;;;;;;;1.30;1.20;;;;;;;20.68;44.00;93895.06;5081295;28;20081;-35
2022/10/09 07:50:07;;;;;;;1.25;1.05;;;;;;;20.89;43.76;93900.63;5084531;28;20040;-35
2022/10/09 07:52:33;;;;;;;1.15;1.10;;;;;;;20.98;43.34;93905.41;5091560;28;20389;-35
2022/10/09 07:54:58;;;;;;;1.95;0.90;;;;;;;20.92;42.54;93905.03;5091920;28;20480;-35
2022/10/09 07:57:24;;;;;;;1.80;1.70;;;;;;;21.08;43.22;93899.72;5091948;28;20474;-35
2022/10/09 07:59:49;;;;;;;0.88;0.88;;;;;;;20.97;43.37;93906.00;5091343;28;20028;-35
2022/10/09 08:02:14;;;;;;;1.98;1.33;;;;;;;21.23;43.97;93904.13;5091977;28;20035;-35
2022/10/09 08:04:40;;;;;;;1.23;1.23;;;;;;;21.09;42.19;93907.53;5089777;28;20024;-35
2022/10/09 08:07:05;;;;;;;1.80;1.70;;;;;;;21.28;42.13;93900.25;5091523;28;20138;-35
2022/10/09 08:09:31;;;;;;;1.15;0.52;;;;;;;21.29;42.12;93901.72;5091665;28;20040;-35
2022/10/09 08:11:57;;;;;;;0.50;0.50;;;;;;;21.18;42.41;93908.75;5091018;28;20023;-35
2022/10/09 08:14:22;;;;;;;0.50;0.50;;;;;;;21.57;42.59;93884.47;5090549;28;20480;-35
2022/10/09 08:16:48;;;;;;;1.63;1.02;;;;;;;22.38;41.72;93903.34;5091699;28;20024;-35
2022/10/09 08:19:14;;;;;;;1.00;0.98;;;;;;;22.38;42.28;93906.88;5088215;28;20024;-36
2022/10/09 08:21:39;;;;;;;0.43;0.43;;;;;;;22.69;40.93;93903.00;5091976;28;20036;-35
2022/10/09 08:24:05;;;;;;;0.90;0.90;;;;;;;23.18;39.98;93895.88;5091531;28;20070;-36
2022/10/09 08:26:30;;;;;;;0.30;0.30;;;;;;;23.25;40.56;93894.88;5090153;28;20101;-35
2022/10/09 08:28:58;;;;;;;3.25;1.48;;;;;;;23.53;39.20;93895.69;5089559;28;20054;-36
2022/10/09 08:31:24;;;;;;;1.83;1.05;;;;;;;23.77;39.13;93894.13;5089563;28;20028;-36
2022/10/09 08:33:55;;;;;;;1.05;0.77;;;;;;;23.74;39.46;93901.03;5091275;28;20039;-35
2022/10/09 08:36:21;;;;;;;0.40;0.40;;;;;;;23.86;38.29;93896.03;5091317;28;20040;-35
2022/10/09 08:38:46;;;;;;;0.75;0.75;;;;;;;23.84;38.93;93896.66;5089474;28;20100;-35
2022/10/09 08:41:40;;;;;;;1.27;0.95;;;;;;;24.08;38.39;93889.44;5088778;28;20497;-35
2022/10/09 08:44:17;;;;;;;0.20;0.20;;;;;;;24.06;38.33;93892.16;5088348;28;20520;-35
2022/10/09 08:47:01;;;;;;;0.40;0.40;;;;;;;24.02;37.51;93886.31;5087949;28;20035;-35
2022/10/09 08:49:33;;;;;;;0.43;0.43;;;;;;;24.26;36.93;93886.81;5083957;28;20024;-35
2022/10/09 08:52:08;;;;;;;0.65;0.50;;;;;;;24.23;35.98;93888.09;5083817;28;20062;-35
2022/10/09 08:54:35;;;;;;;0.90;0.90;;;;;;;24.21;37.78;93898.53;5068331;28;20028;-47
2022/10/09 08:57:03;;;;;;;0.50;0.50;;;;;;;24.22;36.91;93897.16;5084576;28;20034;-46
2022/10/09 08:59:30;;;;;;;0.73;0.73;;;;;;;24.34;36.66;93892.16;5064826;28;20039;-46
2022/10/09 09:02:32;;;;;;;6.22;1.60;;;;;;;23.99;37.21;93890.41;5089174;28;20023;-45
2022/10/09 09:05:00;;;;;;;0.35;0.35;;;;;;;23.83;37.64;93886.00;5087250;28;20055;-44
2022/10/09 09:08:07;;;;;;;2.83;1.30;;;;;;;24.20;38.43;93885.78;5084920;28;20039;-49
2022/10/09 09:10:40;;;;;;;0.43;0.43;;;;;;;23.96;38.65;93880.34;4988805;28;20026;-46
2022/10/09 09:13:16;;;;;;;0.25;0.25;;;;;;;24.00;37.16;93883.38;4989280;28;20125;-46
2022/10/09 09:15:55;;;;;;;0.55;0.55;;;;;;;24.22;39.08;93878.16;5047243;28;20036;-45
2022/10/09 09:18:23;;;;;;;0.25;0.25;;;;;;;24.64;37.46;93883.09;5061259;28;20038;-47
2022/10/09 09:20:53;;;;;;;2.60;0.93;;;;;;;24.80;36.00;93883.16;5090086;28;20028;-48
2022/10/09 09:23:29;;;;;;;0.65;0.65;;;;;;;24.67;35.76;93884.63;5072254;28;20574;-47
2022/10/09 09:25:55;;;;;;;0.20;0.20;;;;;;;24.87;35.92;93881.34;5055159;28;20055;-46
2022/10/09 09:28:29;;;;;;;0.25;0.25;;;;;;;25.18;35.22;93887.81;5089382;28;20020;-47
2022/10/09 09:31:20;;;;;;;0.55;0.50;;;;;;;24.96;34.18;93880.38;5088370;28;20035;-47
2022/10/09 09:33:48;;;;;;;1.13;1.08;;;;;;;25.27;34.84;93886.09;5069559;28;20040;-48
2022/10/09 09:36:24;;;;;;;0.65;0.55;;;;;;;25.56;33.79;93880.38;5090254;28;20027;-46
2022/10/09 09:38:50;;;;;;;0.50;0.50;;;;;;;25.62;33.35;93880.66;5085824;28;20497;-46
2022/10/09 09:41:16;;;;;;;1.50;0.47;;;;;;;25.79;32.39;93882.84;5074565;28;20034;-46
2022/10/09 09:43:41;;;;;;;0.70;0.70;;;;;;;25.95;32.96;93872.25;5088820;28;20032;-46
2022/10/09 09:46:25;;;;;;;0.52;0.52;;;;;;;25.65;33.05;93881.47;5090020;28;20035;-45
2022/10/09 09:48:50;;;;;;;1.38;1.27;;;;;;;25.99;32.83;93883.03;5068437;28;20036;-47
2022/10/09 09:51:21;;;;;;;0.52;0.52;;;;;;;26.56;32.88;93884.06;5088281;28;20866;-48
2022/10/09 09:54:06;;;;;;;1.42;1.33;;;;;;;27.36;31.53;93883.06;5072429;28;20582;-45
2022/10/09 09:56:38;;;;;;;0.10;0.10;;;;;;;28.17;30.01;93879.03;5070004;28;20123;-47
2022/10/09 09:59:05;;;;;;;0.75;0.75;;;;;;;28.60;29.25;93883.34;5060356;28;20061;-45
2022/10/09 10:01:31;;;;;;;0.60;0.60;;;;;;;29.15;29.20;93875.22;5071580;28;20023;-46
2022/10/09 10:03:58;;;;;;;0.32;0.32;;;;;;;29.31;29.04;93880.69;5088364;28;20038;-44
2022/10/09 10:06:28;;;;;;;0.10;0.10;;;;;;;30.17;26.98;93882.59;5088465;28;20042;-46
2022/10/09 10:09:13;;;;;;;0.50;0.32;;;;;;;30.29;26.81;93872.25;5089440;28;20052;-45
2022/10/09 10:11:44;;;;;;;0.28;0.28;;;;;;;30.34;26.21;93890.91;5088158;28;20416;-47
2022/10/09 10:14:14;;;;;;;2.13;1.17;;;;;;;30.94;25.93;93874.69;5076137;28;20043;-46
2022/10/09 10:16:40;;;;;;;0.57;0.57;;;;;;;30.87;25.46;93881.63;5071115;28;20039;-49
2022/10/09 10:19:05;;;;;;;1.27;1.20;;;;;;;31.24;25.04;93880.41;5088803;28;20039;-47
2022/10/09 10:21:47;;;;;;;1.40;1.27;;;;;;;31.57;24.69;93876.91;5088392;28;20036;-47
2022/10/09 10:24:17;;;;;;;3.40;1.02;;;;;;;31.59;23.77;93879.09;5088684;28;20024;-44
2022/10/09 10:26:48;;;;;;;1.85;0.73;;;;;;;31.76;23.95;93878.75;5087942;28;20077;-46
2022/10/09 10:29:34;;;;;;;0.40;0.40;;;;;;;32.26;23.84;93879.09;5088554;28;20028;-44
2022/10/09 10:32:20;;;;;;;1.58;1.48;;;;;;;32.49;23.12;93878.16;5087669;28;20523;-44
2022/10/09 10:35:05;;;;;;;1.55;1.05;;;;;;;31.90;23.79;93876.19;5073712;28;20026;-44
2022/10/09 10:37:49;;;;;;;0.65;0.63;;;;;;;30.80;24.39;93865.03;5082636;28;20097;-46
2022/10/09 10:40:33;;;;;;;0.68;0.68;;;;;;;31.16;24.76;93872.38;5067172;28;20514;-47
2022/10/09 10:43:36;;;;;;;1.10;0.88;;;;;;;31.20;24.60;93866.03;5086437;28;20039;-49
2022/10/09 10:46:09;;;;;;;2.30;1.02;;;;;;;31.27;23.90;93859.09;5070107;28;20515;-44
2022/10/09 10:48:46;;;;;;;0.40;0.40;;;;;;;31.45;24.22;93868.06;5078976;28;20020;-47
2022/10/09 10:51:23;;;;;;;0.20;0.20;;;;;;;31.58;23.92;93863.38;5085895;28;20028;-46
2022/10/09 10:53:55;;;;;;;0.60;0.60;;;;;;;31.39;24.24;93865.78;5085845;28;20720;-47
2022/10/09 10:56:29;;;;;;;0.17;0.17;;;;;;;31.54;24.00;93864.00;5069404;28;20050;-49
2022/10/09 10:59:21;;;;;;;0.30;0.30;;;;;;;31.84;23.73;93861.06;5072562;28;20023;-46
2022/10/09 11:01:58;;;;;;;0.65;0.60;;;;;;;31.69;24.15;93856.47;5086648;28;20042;-44
2022/10/09 11:04:39;;;;;;;0.40;0.40;;;;;;;32.17;23.87;93849.66;5072706;28;20032;-45
2022/10/09 11:07:16;;;;;;;0.80;0.80;;;;;;;32.65;23.13;93855.59;5081207;28;20028;-45
2022/10/09 11:09:41;;;;;;;1.27;1.17;;;;;;;32.32;23.32;93844.94;5036592;28;20050;-45
2022/10/09 11:12:22;;;;;;;0.30;0.30;;;;;;;32.29;22.70;93837.75;5042316;28;20029;-45
2022/10/09 11:15:23;;;;;;;2.22;1.17;;;;;;;31.82;24.02;93847.47;5041333;28;20037;-42
2022/10/09 11:18:07;;;;;;;0.47;0.47;;;;;;;32.20;24.12;93839.00;4995713;28;20045;-45
2022/10/09 11:21:01;;;;;;;0.20;0.20;;;;;;;31.59;21.54;93839.13;5052293;28;20087;-46
2022/10/09 11:23:59;;;;;;;1.27;1.17;;;;;;;30.99;20.76;93842.00;5040946;28;20094;-50
2022/10/09 11:26:48;;;;;;;0.80;0.55;;;;;;;29.90;24.34;93844.09;5048600;28;20040;-48
2022/10/09 11:29:30;;;;;;;0.50;0.50;;;;;;;28.68;24.19;93838.16;5047758;28;20037;-46
2022/10/09 11:32:00;;;;;;;0.15;0.15;;;;;;;29.51;24.19;93830.13;5048307;28;20512;-45
2022/10/09 11:34:40;;;;;;;3.75;1.65;;;;;;;29.08;24.47;93828.81;5047793;28;20029;-45
2022/10/09 11:37:15;;;;;;;1.23;0.68;;;;;;;29.17;25.21;93835.50;5064310;28;20037;-46
2022/10/09 11:39:41;;;;;;;0.70;0.65;;;;;;;28.98;24.55;93819.97;5049029;28;20033;-44
2022/10/09 11:42:08;;;;;;;1.23;1.13;;;;;;;28.31;25.09;93817.03;5044120;28;20031;-47
2022/10/09 11:44:40;;;;;;;0.70;0.68;;;;;;;28.08;26.42;93819.78;5038470;28;20029;-49
2022/10/09 11:47:15;;;;;;;1.95;1.63;;;;;;;27.98;25.67;93816.59;5040473;28;20044;-47
2022/10/09 11:50:14;;;;;;;0.20;0.20;;;;;;;27.75;25.80;93812.19;5049787;28;20028;-46